createdAt,value
2023-02-13T00:00:19.872Z,36.67
2023-02-13T00:02:46.823Z,38.65
2023-02-13T00:05:13.471Z,35.72
2023-02-13T00:07:40.089Z,39.35
2023-02-13T00:10:07.894Z,38.75
2023-02-13T00:12:35.149Z,37.67
2023-02-13T00:15:01.793Z,38.53
2023-02-13T00:17:28.634Z,40.25
2023-02-13T00:19:55.276Z,32.05
2023-02-13T00:22:21.867Z,34.45
2023-02-13T00:24:48.530Z,30.88
2023-02-13T00:27:15.140Z,36.15
2023-02-13T00:29:41.743Z,31.42
2023-02-13T00:32:08.923Z,31.73
2023-02-13T00:34:35.675Z,32.45
2023-02-13T00:37:02.389Z,31.05
2023-02-13T00:39:29.050Z,37.25
2023-02-13T00:41:55.639Z,31.15
2023-02-13T00:44:22.465Z,31.00
2023-02-13T00:46:49.102Z,34.70
2023-02-13T00:49:15.671Z,31.23
2023-02-13T00:51:42.384Z,27.00
2023-02-13T00:54:08.984Z,34.15
2023-02-13T00:56:35.810Z,33.85
2023-02-13T00:59:02.430Z,36.25
2023-02-13T01:01:29.107Z,37.65
2023-02-13T01:03:56.115Z,36.58
2023-02-13T01:06:22.644Z,36.05
2023-02-13T01:08:49.445Z,37.38
2023-02-13T01:11:16.231Z,28.02
2023-02-13T01:13:42.821Z,31.40
2023-02-13T01:16:09.624Z,28.38
2023-02-13T01:18:36.422Z,31.83
2023-02-13T01:21:07.247Z,28.20
2023-02-13T01:23:37.388Z,32.20
2023-02-13T01:26:08.843Z,26.92
2023-02-13T01:28:35.486Z,31.83
2023-02-13T01:31:03.226Z,28.52
2023-02-13T01:35:56.825Z,21.10
2023-02-13T01:38:23.622Z,30.70
2023-02-13T01:40:52.859Z,30.70
2023-02-13T01:43:20.594Z,31.67
2023-02-13T01:45:50.666Z,29.98
2023-02-13T01:48:26.129Z,28.63
2023-02-13T01:51:02.844Z,29.63
2023-02-13T01:53:33.531Z,30.75
2023-02-13T01:56:05.481Z,32.63
2023-02-13T01:58:35.830Z,33.40
2023-02-13T02:01:03.661Z,34.03
2023-02-13T02:03:35.747Z,30.88
2023-02-13T02:06:02.842Z,26.50
2023-02-13T02:08:30.370Z,29.58
2023-02-13T02:11:03.683Z,29.30
2023-02-13T02:13:29.956Z,31.83
2023-02-13T02:15:56.501Z,24.90
2023-02-13T02:18:24.350Z,28.05
2023-02-13T02:21:09.665Z,32.47
2023-02-13T02:24:03.883Z,27.63
2023-02-13T02:26:57.860Z,30.15
2023-02-13T02:29:42.086Z,27.30
2023-02-13T02:32:39.029Z,31.58
2023-02-13T02:35:17.419Z,28.85
2023-02-13T02:38:01.390Z,31.75
2023-02-13T02:40:33.719Z,30.17
2023-02-13T02:43:12.052Z,29.98
2023-02-13T02:46:08.059Z,31.13
2023-02-13T02:49:05.362Z,27.80
2023-02-13T02:51:48.489Z,28.17
2023-02-13T02:54:37.560Z,26.40
2023-02-13T02:57:10.547Z,29.73
2023-02-13T02:59:38.374Z,34.08
2023-02-13T03:04:40.602Z,27.13
2023-02-13T03:07:09.729Z,27.25
2023-02-13T03:09:44.013Z,30.63
2023-02-13T03:12:13.929Z,36.53
2023-02-13T03:14:40.825Z,30.50
2023-02-13T03:17:13.087Z,27.55
2023-02-13T03:20:01.364Z,32.00
2023-02-13T03:22:49.477Z,29.83
2023-02-13T03:25:25.605Z,30.05
2023-02-13T03:27:59.013Z,28.90
2023-02-13T03:30:46.122Z,31.10
2023-02-13T03:33:31.427Z,34.38
2023-02-13T03:36:22.700Z,34.75
2023-02-13T03:39:12.310Z,35.83
2023-02-13T03:41:44.358Z,32.22
2023-02-13T03:44:23.268Z,33.40
2023-02-13T03:46:53.329Z,33.40
2023-02-13T03:49:27.719Z,26.33
2023-02-13T03:52:02.782Z,28.25
2023-02-13T03:54:52.170Z,26.52
2023-02-13T03:57:21.190Z,27.05
2023-02-13T03:59:48.279Z,29.02
2023-02-13T04:02:21.279Z,26.73
2023-02-13T04:05:16.325Z,28.88
2023-02-13T04:07:42.726Z,24.65
2023-02-13T04:10:17.273Z,31.90
2023-02-13T04:13:13.105Z,24.40
2023-02-13T04:15:57.419Z,26.38
2023-02-13T04:18:30.873Z,23.35
2023-02-13T04:20:57.885Z,25.88
2023-02-13T04:23:24.409Z,24.45
2023-02-13T04:25:53.343Z,24.45
2023-02-13T04:28:19.717Z,26.50
2023-02-13T04:30:46.109Z,31.13
2023-02-13T04:33:12.476Z,34.33
2023-02-13T04:35:38.845Z,32.17
2023-02-13T04:38:05.177Z,32.95
2023-02-13T04:40:31.539Z,34.10
2023-02-13T04:42:58.180Z,32.67
2023-02-13T04:45:24.469Z,29.38
2023-02-13T04:47:55.148Z,32.20
2023-02-13T04:50:22.215Z,35.67
2023-02-13T04:52:53.258Z,33.80
2023-02-13T04:55:19.701Z,28.70
2023-02-13T04:57:46.016Z,26.27
2023-02-13T05:00:12.796Z,27.58
2023-02-13T05:02:39.739Z,24.83
2023-02-13T05:05:06.471Z,25.05
2023-02-13T05:07:32.830Z,30.67
2023-02-13T05:09:59.081Z,27.42
2023-02-13T05:12:25.400Z,30.30
2023-02-13T05:14:51.941Z,24.75
2023-02-13T05:17:18.238Z,25.85
2023-02-13T05:19:44.557Z,34.25
2023-02-13T05:22:11.108Z,28.45
2023-02-13T05:24:37.461Z,29.55
2023-02-13T05:27:03.725Z,27.27
2023-02-13T05:29:30.023Z,27.63
2023-02-13T05:31:57.918Z,28.08
2023-02-13T05:36:51.654Z,20.15
2023-02-13T05:39:18.427Z,23.13
2023-02-13T05:41:45.949Z,24.20
2023-02-13T05:44:12.842Z,25.98
2023-02-13T05:46:40.335Z,25.15
2023-02-13T05:49:08.008Z,27.77
2023-02-13T05:51:34.310Z,25.95
2023-02-13T05:54:00.711Z,27.88
2023-02-13T05:56:27.453Z,29.42
2023-02-13T05:58:55.553Z,27.92
2023-02-13T06:01:23.252Z,34.90
2023-02-13T06:03:49.765Z,27.38
2023-02-13T06:06:17.285Z,28.83
2023-02-13T06:08:44.187Z,33.55
2023-02-13T06:11:10.946Z,24.10
2023-02-13T06:13:37.247Z,32.70
2023-02-13T06:16:03.748Z,32.85
2023-02-13T06:18:30.074Z,29.38
2023-02-13T06:20:56.647Z,31.85
2023-02-13T06:23:23.108Z,36.20
2023-02-13T06:25:49.435Z,27.92
2023-02-13T06:28:15.789Z,27.25
2023-02-13T06:30:42.142Z,29.17
2023-02-13T06:33:08.514Z,35.20
2023-02-13T06:35:34.781Z,25.38
2023-02-13T06:38:01.069Z,28.92
2023-02-13T06:40:27.484Z,27.48
2023-02-13T06:42:53.760Z,27.35
2023-02-13T06:45:20.210Z,32.90
2023-02-13T06:47:48.368Z,28.88
2023-02-13T06:50:17.461Z,28.85
2023-02-13T06:52:48.376Z,30.92
2023-02-13T06:55:15.462Z,38.75
2023-02-13T06:57:43.295Z,32.03
2023-02-13T07:00:10.386Z,36.65
2023-02-13T07:02:37.417Z,28.80
2023-02-13T07:05:03.830Z,36.47
2023-02-13T07:07:34.137Z,39.92
2023-02-13T07:10:01.110Z,26.35
2023-02-13T07:12:27.830Z,29.23
2023-02-13T07:14:54.075Z,29.20
2023-02-13T07:17:20.342Z,28.13
2023-02-13T07:19:46.632Z,24.15
2023-02-13T07:22:13.012Z,26.83
2023-02-13T07:24:39.288Z,23.88
2023-02-13T07:27:05.604Z,28.23
2023-02-13T07:29:31.916Z,22.88
2023-02-13T07:31:58.207Z,25.08
2023-02-13T07:34:24.553Z,26.35
2023-02-13T07:36:50.815Z,21.67
2023-02-13T07:39:17.104Z,27.83
2023-02-13T07:41:43.415Z,29.77
2023-02-13T07:44:09.759Z,19.35
2023-02-13T07:46:36.053Z,23.15
2023-02-13T07:49:02.547Z,22.88
2023-02-13T07:51:28.866Z,21.50
2023-02-13T07:53:56.546Z,26.63
2023-02-13T07:56:22.917Z,24.08
2023-02-13T07:58:49.227Z,27.00
2023-02-13T08:01:16.884Z,26.00
2023-02-13T08:03:43.297Z,27.75
2023-02-13T08:06:09.805Z,27.05
2023-02-13T08:08:36.139Z,24.50
2023-02-13T08:11:08.386Z,24.98
2023-02-13T08:13:34.714Z,28.40
2023-02-13T08:16:01.030Z,30.08
2023-02-13T08:18:27.407Z,26.83
2023-02-13T08:20:53.767Z,21.30
2023-02-13T08:23:20.095Z,29.75
2023-02-13T08:25:46.399Z,24.23
2023-02-13T08:28:12.915Z,26.77
2023-02-13T08:30:39.281Z,26.30
2023-02-13T08:33:05.603Z,25.70
2023-02-13T08:35:31.989Z,24.00
2023-02-13T08:38:02.189Z,31.50
2023-02-13T08:40:28.486Z,30.52
2023-02-13T08:43:02.954Z,24.08
2023-02-13T08:45:29.516Z,21.70
2023-02-13T08:47:57.466Z,27.48
2023-02-13T08:50:24.058Z,24.55
2023-02-13T08:52:50.454Z,24.17
2023-02-13T08:55:16.864Z,23.67
2023-02-13T08:57:43.144Z,25.33
2023-02-13T09:00:09.832Z,23.50
2023-02-13T09:02:36.222Z,30.52
2023-02-13T09:05:02.601Z,33.78
2023-02-13T09:07:28.882Z,33.80
2023-02-13T09:09:55.295Z,34.75
2023-02-13T09:12:21.562Z,27.10
2023-02-13T09:14:47.840Z,24.17
2023-02-13T09:17:14.154Z,25.02
2023-02-13T09:19:40.413Z,22.00
2023-02-13T09:22:06.728Z,25.05
2023-02-13T09:24:33.021Z,21.73
2023-02-13T09:26:59.327Z,22.92
2023-02-13T09:29:25.614Z,26.52
2023-02-13T09:31:51.959Z,26.88
2023-02-13T09:34:18.348Z,28.00
2023-02-13T09:36:44.619Z,25.27
2023-02-13T09:39:10.913Z,24.63
2023-02-13T09:41:40.417Z,24.88
2023-02-13T09:44:31.080Z,22.45
2023-02-13T09:46:57.454Z,25.27
2023-02-13T09:49:28.019Z,25.45
2023-02-13T09:51:57.136Z,27.38
2023-02-13T09:54:23.484Z,25.75
2023-02-13T09:56:51.845Z,24.85
2023-02-13T09:59:35.024Z,23.80
2023-02-13T10:02:18.578Z,27.55
2023-02-13T10:04:47.748Z,24.85
2023-02-13T10:07:36.591Z,28.63
2023-02-13T10:10:31.329Z,28.85
2023-02-13T10:13:14.791Z,28.90
2023-02-13T10:15:51.820Z,25.73
2023-02-13T10:18:30.013Z,24.95
2023-02-13T10:20:59.539Z,25.30
2023-02-13T10:23:35.391Z,24.38
2023-02-13T10:26:08.421Z,28.08
2023-02-13T10:28:49.721Z,24.75
2023-02-13T10:31:19.407Z,24.38
2023-02-13T10:34:02.125Z,27.33
2023-02-13T10:36:33.981Z,24.33
2023-02-13T10:39:03.129Z,26.65
2023-02-13T10:41:59.838Z,26.63
2023-02-13T10:45:00.020Z,27.17
2023-02-13T10:48:18.576Z,21.98
2023-02-13T10:50:59.926Z,25.80
2023-02-13T10:53:41.431Z,26.67
2023-02-13T10:56:39.914Z,27.60
2023-02-13T11:00:01.893Z,24.15
2023-02-13T11:02:31.203Z,20.58
2023-02-13T11:05:16.506Z,20.30
2023-02-13T11:07:44.017Z,21.30
2023-02-13T11:10:20.133Z,23.70
2023-02-13T11:12:46.947Z,25.67
2023-02-13T11:15:26.184Z,22.75
2023-02-13T11:17:57.006Z,20.92
2023-02-13T11:20:29.681Z,22.05
2023-02-13T11:23:12.095Z,17.05
2023-02-13T11:25:38.503Z,18.77
2023-02-13T11:28:16.436Z,23.27
2023-02-13T11:30:42.943Z,26.55
2023-02-13T11:33:18.157Z,23.13
2023-02-13T11:35:46.816Z,26.63
2023-02-13T11:38:20.376Z,19.23
2023-02-13T11:40:53.046Z,24.70
2023-02-13T11:43:33.774Z,25.95
2023-02-13T11:46:02.897Z,23.65
2023-02-13T11:48:29.386Z,24.73
2023-02-13T11:50:57.227Z,21.52
2023-02-13T11:53:27.287Z,22.58
2023-02-13T11:56:15.086Z,27.67
2023-02-13T11:58:42.491Z,26.23
2023-02-13T12:01:20.731Z,24.70
2023-02-13T12:04:01.251Z,24.80
2023-02-13T12:06:27.649Z,21.00
2023-02-13T12:08:54.754Z,23.00
2023-02-13T12:11:50.460Z,19.65
2023-02-13T12:14:21.613Z,20.95
2023-02-13T12:17:05.158Z,22.85
2023-02-13T12:19:40.954Z,22.65
2023-02-13T12:22:19.067Z,23.05
2023-02-13T12:24:51.303Z,21.33
2023-02-13T12:27:34.407Z,21.95
2023-02-13T12:30:19.233Z,24.27
2023-02-13T12:33:11.417Z,24.20
2023-02-13T12:36:01.877Z,26.75
2023-02-13T12:38:53.373Z,25.65
2023-02-13T12:41:28.651Z,22.80
2023-02-13T12:44:45.384Z,25.92
2023-02-13T12:47:19.274Z,21.67
2023-02-13T12:50:14.380Z,23.55
2023-02-13T12:52:55.623Z,22.40
2023-02-13T12:55:37.544Z,20.92
2023-02-13T12:58:41.577Z,22.85
2023-02-13T13:04:17.496Z,24.63
2023-02-13T13:06:57.500Z,25.10
2023-02-13T13:09:29.580Z,14.98
2023-02-13T13:12:07.669Z,16.25
2023-02-13T13:15:08.483Z,13.07
2023-02-13T13:17:49.349Z,16.50
2023-02-13T13:20:52.781Z,14.32
2023-02-13T13:23:32.412Z,10.55
2023-02-13T13:25:58.695Z,11.27
2023-02-13T13:28:47.145Z,9.85
2023-02-13T13:31:14.895Z,10.88
2023-02-13T13:33:45.423Z,9.05
2023-02-13T13:36:25.888Z,7.95
2023-02-13T13:39:02.687Z,6.97
2023-02-13T13:41:38.728Z,6.97
2023-02-13T13:44:30.005Z,8.82
2023-02-13T13:47:09.089Z,7.15
2023-02-13T13:49:44.471Z,9.65
2023-02-13T13:52:19.289Z,7.70
2023-02-13T13:54:45.708Z,7.90
2023-02-13T13:57:12.772Z,7.05
2023-02-13T13:59:39.119Z,7.05
2023-02-13T14:02:17.443Z,8.02
2023-02-13T14:05:02.772Z,7.70
2023-02-13T14:07:40.593Z,7.50
2023-02-13T14:10:29.800Z,7.32
2023-02-13T14:12:56.042Z,9.48
2023-02-13T14:15:34.511Z,8.00
2023-02-13T14:18:14.946Z,7.50
2023-02-13T14:20:49.705Z,8.55
2023-02-13T14:23:45.043Z,8.38
2023-02-13T14:26:17.334Z,8.43
2023-02-13T14:28:49.475Z,8.57
2023-02-13T14:31:26.477Z,12.00
2023-02-13T14:34:00.049Z,18.08
2023-02-13T14:36:30.568Z,12.55
2023-02-13T14:38:58.826Z,10.32
2023-02-13T14:41:44.855Z,9.32
2023-02-13T14:44:36.011Z,7.80
2023-02-13T14:47:11.197Z,10.25
2023-02-13T14:49:40.809Z,7.68
2023-02-13T14:52:17.719Z,6.95
2023-02-13T14:54:54.128Z,8.27
2023-02-13T14:57:29.254Z,8.52
2023-02-13T15:00:03.324Z,8.82
2023-02-13T15:02:42.339Z,10.15
2023-02-13T15:05:15.162Z,11.18
2023-02-13T15:07:55.792Z,7.93
2023-02-13T15:10:45.470Z,9.13
2023-02-13T15:13:20.327Z,10.05
2023-02-13T15:15:56.183Z,7.55
2023-02-13T15:18:27.062Z,8.13
2023-02-13T15:20:56.215Z,9.88
2023-02-13T15:23:25.544Z,9.60
2023-02-13T15:26:06.521Z,8.52
2023-02-13T15:28:34.295Z,9.07
2023-02-13T15:31:04.076Z,7.10
2023-02-13T15:33:50.316Z,9.32
2023-02-13T15:36:20.167Z,10.30
2023-02-13T15:38:46.676Z,9.32
2023-02-13T15:41:20.703Z,9.18
2023-02-13T15:43:50.329Z,11.35
2023-02-13T15:46:25.607Z,11.82
2023-02-13T15:48:56.152Z,7.68
2023-02-13T15:51:24.682Z,11.32
2023-02-13T15:53:56.439Z,10.32
2023-02-13T15:56:23.313Z,9.57
2023-02-13T15:58:51.177Z,11.48
2023-02-13T16:01:18.139Z,8.93
2023-02-13T16:03:59.743Z,9.32
2023-02-13T16:06:26.680Z,10.77
2023-02-13T16:08:58.652Z,14.80
2023-02-13T16:11:27.901Z,11.25
2023-02-13T16:14:02.749Z,11.13
2023-02-13T16:16:32.942Z,11.63
2023-02-13T16:18:59.502Z,10.68
2023-02-13T16:21:29.023Z,14.05
2023-02-13T16:24:03.155Z,14.23
2023-02-13T16:26:29.649Z,13.60
2023-02-13T16:28:56.135Z,17.92
2023-02-13T16:31:22.663Z,16.77
2023-02-13T16:33:49.371Z,12.38
2023-02-13T16:36:15.616Z,12.77
2023-02-13T16:38:49.427Z,17.90
2023-02-13T16:41:18.701Z,15.57
2023-02-13T16:43:56.292Z,12.50
2023-02-13T16:46:33.037Z,12.65
2023-02-13T16:49:01.762Z,15.57
2023-02-13T16:51:36.140Z,13.50
2023-02-13T16:54:10.103Z,12.65
2023-02-13T16:56:47.063Z,16.20
2023-02-13T16:59:35.824Z,17.95
2023-02-13T17:02:22.356Z,14.90
2023-02-13T17:05:13.477Z,17.63
2023-02-13T17:07:50.078Z,14.93
2023-02-13T17:10:25.621Z,13.70
2023-02-13T17:12:51.951Z,16.75
2023-02-13T17:15:24.072Z,16.63
2023-02-13T17:17:50.385Z,19.95
2023-02-13T17:20:20.057Z,23.00
2023-02-13T17:22:51.819Z,27.38
2023-02-13T17:25:26.956Z,23.40
2023-02-13T17:27:58.793Z,37.15
2023-02-13T17:30:31.798Z,30.05
2023-02-13T17:33:12.156Z,40.03
2023-02-13T17:35:38.520Z,36.22
2023-02-13T17:38:05.178Z,36.65
2023-02-13T17:40:32.011Z,45.45
2023-02-13T17:42:59.566Z,25.17
2023-02-13T17:45:29.725Z,21.75
2023-02-13T17:47:56.506Z,17.75
2023-02-13T17:50:23.242Z,20.75
2023-02-13T17:52:49.870Z,17.90
2023-02-13T17:55:20.044Z,18.88
2023-02-13T17:57:47.210Z,22.17
2023-02-13T18:00:14.097Z,19.50
2023-02-13T18:02:41.086Z,20.38
2023-02-13T18:05:07.829Z,19.83
2023-02-13T18:07:34.140Z,26.48
2023-02-13T18:10:00.465Z,26.50
2023-02-13T18:12:26.806Z,19.55
2023-02-13T18:14:53.611Z,19.45
2023-02-13T18:17:20.740Z,19.05
2023-02-13T18:19:47.469Z,15.27
2023-02-13T18:22:13.911Z,18.23
2023-02-13T18:24:41.776Z,16.35
2023-02-13T18:27:09.564Z,16.92
2023-02-13T18:32:02.297Z,15.23
2023-02-13T18:34:28.662Z,23.20
2023-02-13T18:36:55.003Z,17.67
2023-02-13T18:39:21.272Z,21.45
2023-02-13T18:41:47.597Z,22.67
2023-02-13T18:44:20.253Z,21.65
2023-02-13T18:46:54.365Z,27.40
2023-02-13T18:49:20.653Z,25.42
2023-02-13T18:52:19.434Z,21.95
2023-02-13T18:54:45.778Z,21.83
2023-02-13T18:57:12.052Z,21.17
2023-02-13T18:59:38.464Z,29.65
2023-02-13T19:02:04.771Z,29.40
2023-02-13T19:04:31.701Z,27.58
2023-02-13T19:06:58.071Z,28.25
2023-02-13T19:09:24.372Z,30.52
2023-02-13T19:11:50.679Z,35.35
2023-02-13T19:14:17.064Z,29.85
2023-02-13T19:16:43.435Z,27.27
2023-02-13T19:19:10.357Z,25.35
2023-02-13T19:21:38.406Z,34.05
2023-02-13T19:24:07.198Z,33.53
2023-02-13T19:26:33.911Z,31.55
2023-02-13T19:29:00.370Z,29.20
2023-02-13T19:31:29.854Z,29.65
2023-02-13T19:33:56.191Z,37.50
2023-02-13T19:36:25.706Z,35.42
2023-02-13T19:38:57.961Z,31.95
2023-02-13T19:41:24.658Z,34.33
2023-02-13T19:43:51.006Z,35.13
2023-02-13T19:46:19.859Z,38.60
2023-02-13T19:48:46.390Z,38.35
2023-02-13T19:51:14.957Z,34.05
2023-02-13T19:53:41.625Z,38.72
2023-02-13T19:56:08.823Z,30.27
2023-02-13T19:58:39.445Z,28.67
2023-02-13T20:01:11.589Z,28.50
2023-02-13T20:03:37.962Z,31.60
2023-02-13T20:06:10.825Z,28.80
2023-02-13T20:08:37.684Z,33.05
2023-02-13T20:11:10.189Z,32.72
2023-02-13T20:13:36.909Z,35.78
2023-02-13T20:16:05.263Z,30.95
2023-02-13T20:18:33.361Z,34.38
2023-02-13T20:21:00.080Z,34.25
2023-02-13T20:23:26.652Z,34.30
2023-02-13T20:25:52.981Z,34.35
2023-02-13T20:28:19.357Z,34.58
2023-02-13T20:30:45.784Z,35.45
2023-02-13T20:33:12.164Z,31.90
2023-02-13T20:35:38.499Z,29.42
2023-02-13T20:38:04.955Z,34.47
2023-02-13T20:40:31.395Z,32.75
2023-02-13T20:42:57.689Z,39.00
2023-02-13T20:45:24.047Z,36.25
2023-02-13T20:47:50.381Z,31.80
2023-02-13T20:50:16.835Z,31.88
2023-02-13T20:52:43.155Z,35.63
2023-02-13T20:55:09.481Z,29.88
2023-02-13T20:57:36.577Z,32.40
2023-02-13T21:00:05.379Z,33.83
2023-02-13T21:02:31.792Z,33.13
2023-02-13T21:04:58.226Z,38.13
2023-02-13T21:07:24.836Z,35.00
2023-02-13T21:09:51.203Z,30.35
2023-02-13T21:12:17.588Z,29.25
2023-02-13T21:14:43.919Z,33.60
2023-02-13T21:17:10.264Z,30.70
2023-02-13T21:19:36.594Z,31.98
2023-02-13T21:22:03.090Z,33.33
2023-02-13T21:24:29.509Z,34.13
2023-02-13T21:26:55.795Z,35.92
2023-02-13T21:29:22.146Z,32.35
2023-02-13T21:31:48.569Z,37.78
2023-02-13T21:34:17.551Z,32.75
2023-02-13T21:36:44.358Z,32.33
2023-02-13T21:39:11.936Z,28.38
2023-02-13T21:41:42.813Z,33.17
2023-02-13T21:44:11.378Z,33.60
2023-02-13T21:46:37.669Z,30.42
2023-02-13T21:49:05.976Z,29.73
2023-02-13T21:51:35.621Z,34.78
2023-02-13T21:54:03.038Z,32.53
2023-02-13T21:56:32.287Z,35.88
2023-02-13T21:58:58.929Z,32.47
2023-02-13T22:01:30.222Z,34.33
2023-02-13T22:04:01.398Z,32.00
2023-02-13T22:06:29.758Z,34.17
2023-02-13T22:08:58.391Z,35.83
2023-02-13T22:11:25.324Z,36.03
2023-02-13T22:13:58.604Z,31.88
2023-02-13T22:16:24.993Z,30.27
2023-02-13T22:18:51.475Z,36.50
2023-02-13T22:21:21.175Z,34.10
2023-02-13T22:23:48.987Z,36.15
2023-02-13T22:28:46.504Z,31.38
2023-02-13T22:31:14.651Z,33.17
2023-02-13T22:33:42.796Z,34.70
2023-02-13T22:36:09.666Z,32.10
2023-02-13T22:38:38.218Z,29.75
2023-02-13T22:41:09.708Z,35.17
2023-02-13T22:43:36.859Z,35.50
2023-02-13T22:46:20.452Z,35.28
2023-02-13T22:48:47.197Z,34.38
2023-02-13T22:51:19.448Z,31.77
2023-02-13T22:53:45.965Z,32.75
2023-02-13T22:56:12.649Z,32.38
2023-02-13T22:58:39.347Z,29.42
2023-02-13T23:01:14.301Z,29.52
2023-02-13T23:03:41.146Z,28.15
2023-02-13T23:06:09.258Z,32.00
2023-02-13T23:08:36.430Z,35.78
2023-02-13T23:11:12.414Z,33.05
2023-02-13T23:13:38.767Z,31.05
2023-02-13T23:16:12.112Z,29.02
2023-02-13T23:18:38.424Z,29.17
2023-02-13T23:21:05.903Z,32.00
2023-02-13T23:23:32.309Z,31.15
2023-02-13T23:26:04.205Z,33.55
2023-02-13T23:28:30.517Z,35.05
2023-02-13T23:30:57.130Z,31.58
2023-02-13T23:33:23.769Z,30.92
2023-02-13T23:35:50.108Z,32.05
2023-02-13T23:38:16.431Z,32.42
2023-02-13T23:40:42.741Z,30.27
2023-02-13T23:43:09.087Z,31.67
2023-02-13T23:45:35.506Z,26.80
2023-02-13T23:48:01.976Z,31.20
2023-02-13T23:50:28.328Z,33.30
2023-02-13T23:52:54.632Z,33.20
2023-02-13T23:55:21.009Z,31.20
2023-02-13T23:57:47.416Z,26.98
